Time;durP1;ratioP1;P1;durP2;ratioP2;P2;SDS_P1;SDS_P2;PMS_P1;PMS_P2;Temp;Humidity;BMP_temperature;BMP_pressure;BME280_temperature;BME280_humidity;BME280_pressure;Samples;Min_cycle;Max_cycle;Signal;HPM_P1;HPM_P2
2023/01/07 00:01:19;;;;;;;19.73;8.00;;;5.60;1.00;;;;;;4948473;29;20449;-48
2023/01/07 00:03:46;;;;;;;16.63;8.20;;;5.50;1.00;;;;;;4949457;28;20449;-48
2023/01/07 00:06:17;;;;;;;25.20;8.80;;;5.50;39.50;;;;;;4955475;29;20422;-48
2023/01/07 00:08:45;;;;;;;16.27;8.40;;;5.60;99.90;;;;;;4937631;29;20446;-48
2023/01/07 00:11:16;;;;;;;21.27;9.87;;;5.70;99.90;;;;;;4936615;29;20505;-48
2023/01/07 00:13:42;;;;;;;16.00;8.27;;;5.70;99.90;;;;;;4944059;29;20445;-51
2023/01/07 00:16:10;;;;;;;34.90;9.83;;;5.70;99.90;;;;;;4955154;29;20460;-51
2023/01/07 00:18:36;;;;;;;18.47;8.97;;;5.70;99.90;;;;;;4945254;29;20477;-51
2023/01/07 00:21:06;;;;;;;22.53;10.37;;;5.60;99.90;;;;;;4953143;29;20472;-51
2023/01/07 00:23:33;;;;;;;19.40;9.67;;;5.60;99.90;;;;;;4940221;28;20477;-52
2023/01/07 00:26:08;;;;;;;18.23;9.47;;;5.60;99.90;;;;;;4939986;29;20520;-51
2023/01/07 00:28:35;;;;;;;21.20;9.40;;;5.60;99.90;;;;;;4948046;29;20478;-52
2023/01/07 00:31:03;;;;;;;18.97;8.83;;;5.60;99.90;;;;;;4953679;28;20492;-51
2023/01/07 00:33:29;;;;;;;20.83;10.47;;;5.70;99.90;;;;;;4955112;28;20962;-51
2023/01/07 00:36:08;;;;;;;20.80;9.87;;;5.70;1.00;;;;;;4954977;29;20444;-52
2023/01/07 00:38:35;;;;;;;20.33;10.37;;;5.80;1.00;;;;;;4955252;28;20433;-52
2023/01/07 00:41:01;;;;;;;19.20;9.80;;;5.80;1.00;;;;;;4955056;28;20402;-52
2023/01/07 00:43:27;;;;;;;26.97;11.30;;;5.80;1.00;;;;;;4947170;29;20529;-52
2023/01/07 00:45:52;;;;;;;20.70;10.60;;;5.90;1.00;;;;;;4950549;29;20484;-48
2023/01/07 00:48:20;;;;;;;28.07;11.20;;;5.90;1.00;;;;;;4954270;29;20193;-49
2023/01/07 00:50:47;;;;;;;25.13;12.20;;;5.90;1.00;;;;;;4954635;29;20201;-48
2023/01/07 00:53:13;;;;;;;24.90;11.97;;;5.90;1.00;;;;;;4954092;29;20453;-49
2023/01/07 00:55:39;;;;;;;25.63;12.60;;;5.90;1.00;;;;;;4959283;28;20487;-48
2023/01/07 00:58:05;;;;;;;23.30;12.70;;;6.00;1.00;;;;;;4952752;29;20197;-48
2023/01/07 01:00:31;;;;;;;30.20;12.43;;;6.00;1.00;;;;;;4954583;29;20567;-48
2023/01/07 01:02:58;;;;;;;24.50;13.50;;;6.00;1.00;;;;;;4942734;29;20461;-48
2023/01/07 01:05:24;;;;;;;25.40;12.50;;;6.00;1.00;;;;;;4953847;29;20936;-49
2023/01/07 01:07:50;;;;;;;29.63;13.47;;;5.90;1.00;;;;;;4954500;29;20413;-49
2023/01/07 01:10:18;;;;;;;23.73;13.73;;;5.90;1.00;;;;;;4954604;28;20461;-49
2023/01/07 01:12:44;;;;;;;29.73;14.90;;;5.90;1.00;;;;;;4953632;28;20453;-48
2023/01/07 01:15:15;;;;;;;28.80;15.13;;;5.90;1.00;;;;;;4954362;29;20400;-49
2023/01/07 01:17:41;;;;;;;28.23;15.40;;;5.90;1.00;;;;;;4954579;28;20414;-48
2023/01/07 01:20:10;;;;;;;29.60;14.50;;;5.90;1.00;;;;;;4953335;28;20456;-49
2023/01/07 01:22:36;;;;;;;27.50;13.37;;;5.90;1.00;;;;;;4954378;29;20465;-49
2023/01/07 01:25:02;;;;;;;23.10;12.83;;;6.00;1.00;;;;;;4954212;29;20472;-48
2023/01/07 01:27:30;;;;;;;27.73;14.10;;;6.00;1.00;;;;;;4952164;29;20449;-48
2023/01/07 01:29:56;;;;;;;24.00;12.70;;;6.00;1.00;;;;;;4954085;28;20236;-48
2023/01/07 01:32:21;;;;;;;33.03;13.13;;;6.00;1.00;;;;;;4954078;29;20509;-49
2023/01/07 01:34:47;;;;;;;28.73;12.93;;;6.00;1.00;;;;;;4953379;28;20528;-49
2023/01/07 01:37:13;;;;;;;26.53;14.47;;;6.00;1.00;;;;;;4953983;29;20197;-49
2023/01/07 01:39:38;;;;;;;24.40;13.40;;;6.00;1.00;;;;;;4936313;29;20616;-49
2023/01/07 01:42:04;;;;;;;32.40;13.23;;;6.00;1.00;;;;;;4934360;29;20218;-49
2023/01/07 01:44:35;;;;;;;28.67;13.83;;;6.00;1.00;;;;;;4938432;29;20598;-49
2023/01/07 01:47:04;;;;;;;28.70;15.17;;;6.00;1.00;;;;;;4953647;28;20320;-49
2023/01/07 01:49:34;;;;;;;27.03;12.77;;;6.00;1.00;;;;;;4936564;29;20864;-48
2023/01/07 01:52:08;;;;;;;33.77;14.93;;;6.00;1.00;;;;;;4951800;28;21355;-49
2023/01/07 01:54:33;;;;;;;33.93;15.77;;;6.00;1.00;;;;;;4949468;29;20468;-49
2023/01/07 01:57:02;;;;;;;34.80;15.20;;;6.10;1.00;;;;;;4944461;29;21126;-54
2023/01/07 01:59:32;;;;;;;29.80;15.60;;;6.10;1.00;;;;;;4942190;29;20220;-49
2023/01/07 02:01:58;;;;;;;33.23;16.57;;;6.20;1.00;;;;;;4935106;29;20453;-49
2023/01/07 02:04:26;;;;;;;38.87;17.40;;;6.20;1.00;;;;;;4936345;28;20464;-49
2023/01/07 02:06:55;;;;;;;35.17;17.33;;;6.30;1.00;;;;;;4928102;29;20504;-49
2023/01/07 02:09:20;;;;;;;34.90;17.17;;;6.40;1.00;;;;;;4952059;29;20453;-50
2023/01/07 02:12:16;;;;;;;40.63;17.33;;;6.50;1.00;;;;;;4951938;29;20480;-49
2023/01/07 02:15:17;;;;;;;31.90;15.40;;;6.50;1.00;;;;;;4947911;29;21066;-49
2023/01/07 02:18:35;;;;;;;33.17;17.33;;;6.50;1.00;;;;;;4940307;29;20463;-49
2023/01/07 02:21:16;;;;;;;36.33;18.17;;;6.60;1.00;;;;;;4918727;28;20633;-49
2023/01/07 02:24:04;;;;;;;41.70;20.00;;;6.80;1.00;;;;;;4956233;28;20918;-49
2023/01/07 02:27:06;;;;;;;40.50;19.90;;;6.90;1.00;;;;;;4950171;29;20877;-58
2023/01/07 02:29:47;;;;;;;46.27;21.47;;;6.90;1.00;;;;;;4930129;29;20418;-49
2023/01/07 02:32:21;;;;;;;47.87;20.90;;;6.90;1.00;;;;;;4923063;29;20929;-49
2023/01/07 02:35:09;;;;;;;43.83;20.70;;;7.00;1.00;;;;;;4968241;28;20427;-49
2023/01/07 02:37:43;;;;;;;48.27;20.60;;;7.00;1.00;;;;;;4949259;29;20448;-50
2023/01/07 02:40:23;;;;;;;44.93;21.43;;;7.10;1.00;;;;;;4950840;29;20405;-49
2023/01/07 02:43:14;;;;;;;42.83;21.20;;;7.10;1.00;;;;;;4950174;28;20440;-49
2023/01/07 02:45:58;;;;;;;45.33;21.27;;;7.20;1.00;;;;;;4950566;29;20429;-49
2023/01/07 02:48:24;;;;;;;43.20;21.70;;;7.30;1.00;;;;;;4949771;29;20451;-49
2023/01/07 02:50:50;;;;;;;44.23;22.47;;;7.30;1.00;;;;;;4949910;29;20513;-53
2023/01/07 02:53:18;;;;;;;47.50;22.20;;;7.30;1.00;;;;;;4941692;28;20480;-50
2023/01/07 02:56:16;;;;;;;46.00;22.00;;;7.30;1.00;;;;;;4952767;28;20207;-49
2023/01/07 02:58:59;;;;;;;44.73;22.40;;;7.30;1.00;;;;;;4949643;29;20483;-49
2023/01/07 03:01:45;;;;;;;43.27;23.57;;;7.40;1.00;;;;;;4953835;29;20841;-50
2023/01/07 03:04:59;;;;;;;50.20;24.53;;;7.40;1.00;;;;;;4953966;29;20453;-51
2023/01/07 03:07:44;;;;;;;48.17;24.63;;;7.50;1.00;;;;;;4901707;28;20495;-50
2023/01/07 03:10:17;;;;;;;48.47;24.40;;;7.70;29.00;;;;;;4963128;28;21118;-50
2023/01/07 03:12:53;;;;;;;48.67;23.63;;;7.90;51.90;;;;;;4972304;28;20834;-50
2023/01/07 03:15:21;;;;;;;50.40;25.77;;;7.90;61.40;;;;;;4971786;28;20404;-49
2023/01/07 03:18:10;;;;;;;53.60;28.90;;;7.90;67.30;;;;;;4953679;29;20466;-49
2023/01/07 03:20:38;;;;;;;55.10;26.67;;;8.10;86.70;;;;;;4952557;29;20847;-49
2023/01/07 03:23:08;;;;;;;54.07;26.53;;;8.10;92.90;;;;;;4952484;28;20814;-49
2023/01/07 03:25:38;;;;;;;60.37;29.07;;;8.20;96.40;;;;;;4949709;29;20565;-49
2023/01/07 03:28:06;;;;;;;59.10;29.27;;;8.30;99.90;;;;;;4931635;29;21130;-49
2023/01/07 03:30:32;;;;;;;60.13;27.40;;;8.50;99.90;;;;;;4947876;29;20549;-49
2023/01/07 03:33:20;;;;;;;58.00;28.20;;;8.50;99.90;;;;;;4941056;29;20927;-49
2023/01/07 03:35:48;;;;;;;52.60;26.17;;;8.60;99.90;;;;;;4937223;29;20441;-49
2023/01/07 03:38:16;;;;;;;57.30;26.93;;;8.50;99.70;;;;;;4952272;29;20464;-54
2023/01/07 03:40:41;;;;;;;57.57;27.83;;;8.50;93.90;;;;;;4955269;28;20445;-49
2023/01/07 03:43:16;;;;;;;56.40;27.63;;;8.50;94.50;;;;;;4956318;29;20503;-49
2023/01/07 03:45:42;;;;;;;55.17;27.10;;;8.60;99.10;;;;;;4955151;28;20894;-49
2023/01/07 03:48:07;;;;;;;54.57;25.77;;;8.70;99.90;;;;;;4953711;28;20495;-49
2023/01/07 03:50:33;;;;;;;53.87;27.53;;;8.80;99.90;;;;;;4954860;28;20225;-49
2023/01/07 03:52:58;;;;;;;55.53;27.20;;;8.80;97.40;;;;;;4953671;29;20197;-49
2023/01/07 03:55:24;;;;;;;52.93;27.10;;;8.80;93.50;;;;;;4954979;28;20630;-49
2023/01/07 03:57:50;;;;;;;52.00;26.60;;;8.90;92.90;;;;;;4943162;29;20217;-49
2023/01/07 04:00:16;;;;;;;52.87;26.83;;;8.90;89.00;;;;;;4951641;29;20196;-49
2023/01/07 04:02:42;;;;;;;53.93;27.33;;;8.90;85.40;;;;;;4954526;29;20272;-49
2023/01/07 04:05:08;;;;;;;49.13;26.27;;;8.90;83.80;;;;;;4937597;28;20449;-49
2023/01/07 04:07:34;;;;;;;53.90;26.13;;;8.90;81.20;;;;;;4953612;29;20549;-49
2023/01/07 04:10:00;;;;;;;56.83;28.07;;;8.90;82.50;;;;;;4955138;29;20812;-49
2023/01/07 04:12:25;;;;;;;53.40;25.73;;;8.90;80.90;;;;;;4954688;28;20201;-49
2023/01/07 04:14:51;;;;;;;54.13;26.30;;;8.90;84.30;;;;;;4948114;29;20272;-49
2023/01/07 04:17:17;;;;;;;49.97;25.20;;;9.00;90.30;;;;;;4951645;29;20233;-49
2023/01/07 04:19:42;;;;;;;50.07;26.00;;;9.00;90.50;;;;;;4937160;29;20186;-49
2023/01/07 04:22:09;;;;;;;49.10;26.33;;;9.10;89.50;;;;;;4954955;28;20189;-49
2023/01/07 04:24:35;;;;;;;51.23;26.77;;;9.10;88.60;;;;;;4947811;29;20321;-49
2023/01/07 04:27:01;;;;;;;45.77;25.43;;;9.10;91.50;;;;;;4966213;28;20515;-49
2023/01/07 04:29:26;;;;;;;51.23;26.20;;;9.10;92.60;;;;;;4972312;28;20177;-49
2023/01/07 04:31:52;;;;;;;50.10;25.37;;;9.10;92.80;;;;;;4942536;28;20202;-49
2023/01/07 04:34:18;;;;;;;45.87;24.63;;;9.20;91.90;;;;;;4954038;28;20632;-49
2023/01/07 04:36:43;;;;;;;49.07;25.47;;;9.20;91.70;;;;;;4951832;28;20249;-49
2023/01/07 04:39:09;;;;;;;45.87;24.80;;;9.20;91.00;;;;;;4953387;28;20297;-49
2023/01/07 04:41:35;;;;;;;48.07;25.70;;;9.10;87.90;;;;;;4953995;28;20767;-49
2023/01/07 04:44:00;;;;;;;51.67;25.90;;;9.10;90.00;;;;;;4955426;29;20582;-49
2023/01/07 04:46:26;;;;;;;51.27;25.87;;;9.20;95.30;;;;;;4953528;28;20536;-49
2023/01/07 04:48:51;;;;;;;44.67;24.30;;;9.20;95.20;;;;;;4946300;29;20201;-49
2023/01/07 04:51:19;;;;;;;46.63;25.37;;;9.30;98.00;;;;;;4953684;29;20217;-49
2023/01/07 04:53:45;;;;;;;50.37;26.33;;;9.30;99.90;;;;;;4952182;28;20190;-49
2023/01/07 04:56:10;;;;;;;50.30;26.37;;;9.30;99.90;;;;;;4952374;28;20442;-49
2023/01/07 04:58:36;;;;;;;45.53;24.33;;;9.30;97.00;;;;;;4953911;29;20441;-49
2023/01/07 05:01:02;;;;;;;49.13;26.10;;;9.40;99.80;;;;;;4953826;28;20202;-49
2023/01/07 05:03:28;;;;;;;44.40;24.77;;;9.50;99.90;;;;;;4952265;28;20194;-49
2023/01/07 05:05:54;;;;;;;46.10;24.90;;;9.50;99.90;;;;;;4944163;29;20474;-49
2023/01/07 05:08:20;;;;;;;48.33;25.13;;;9.60;99.20;;;;;;4949321;29;20456;-49
2023/01/07 05:10:48;;;;;;;43.07;23.70;;;9.60;96.90;;;;;;4954010;28;20217;-49
2023/01/07 05:13:16;;;;;;;43.97;24.27;;;9.60;94.30;;;;;;4953874;29;20217;-50
2023/01/07 05:15:42;;;;;;;45.10;25.70;;;9.60;93.40;;;;;;4954131;28;20507;-49
2023/01/07 05:18:07;;;;;;;48.37;25.10;;;9.70;92.20;;;;;;4953536;28;20445;-50
2023/01/07 05:20:33;;;;;;;44.97;25.57;;;9.60;89.60;;;;;;4953136;29;20193;-50
2023/01/07 05:22:58;;;;;;;44.70;24.93;;;9.60;88.70;;;;;;4952130;29;20696;-50
2023/01/07 05:25:24;;;;;;;43.57;25.00;;;9.70;93.00;;;;;;4941294;29;20209;-49
2023/01/07 05:27:50;;;;;;;47.80;25.47;;;9.60;93.50;;;;;;4953859;29;20194;-49
2023/01/07 05:30:15;;;;;;;44.90;25.33;;;9.60;98.50;;;;;;4951772;29;20210;-50
2023/01/07 05:32:41;;;;;;;47.27;25.57;;;9.70;99.90;;;;;;4952975;28;20197;-50
2023/01/07 05:35:07;;;;;;;44.80;24.80;;;9.60;99.90;;;;;;4951115;29;20194;-49
2023/01/07 05:37:33;;;;;;;47.87;27.17;;;9.60;99.90;;;;;;4953575;29;20182;-50
2023/01/07 05:39:59;;;;;;;44.97;24.70;;;9.70;99.90;;;;;;4953103;29;20441;-50
2023/01/07 05:42:24;;;;;;;44.33;25.50;;;9.70;99.90;;;;;;4940534;28;20249;-49
2023/01/07 05:44:50;;;;;;;49.87;24.97;;;9.80;99.90;;;;;;4953053;29;20232;-50
2023/01/07 05:47:15;;;;;;;43.67;25.10;;;9.80;99.90;;;;;;4952244;29;20194;-50
2023/01/07 05:49:41;;;;;;;43.70;24.30;;;9.80;99.90;;;;;;4953155;29;20186;-50
2023/01/07 05:52:06;;;;;;;41.37;23.07;;;9.80;99.90;;;;;;4952689;29;20268;-50
2023/01/07 05:54:32;;;;;;;43.07;24.27;;;9.80;99.90;;;;;;4953652;28;20252;-50
2023/01/07 05:56:58;;;;;;;43.17;23.47;;;9.80;99.90;;;;;;4951277;28;20324;-50
2023/01/07 05:59:23;;;;;;;40.83;24.80;;;9.80;99.90;;;;;;4952531;29;20198;-49
2023/01/07 06:01:49;;;;;;;42.33;23.87;;;9.90;99.90;;;;;;4952121;29;20221;-50
2023/01/07 06:04:14;;;;;;;39.37;23.37;;;9.80;99.90;;;;;;4950960;28;20197;-50
2023/01/07 06:06:40;;;;;;;43.30;24.70;;;9.80;99.90;;;;;;4952404;28;20284;-50
2023/01/07 06:09:06;;;;;;;44.60;25.73;;;9.80;99.90;;;;;;4952751;29;20651;-50
2023/01/07 06:11:31;;;;;;;43.80;25.23;;;9.90;99.90;;;;;;4952494;29;20212;-50
2023/01/07 06:13:57;;;;;;;41.40;24.60;;;9.90;99.90;;;;;;4951725;29;20216;-50
2023/01/07 06:16:22;;;;;;;42.80;25.20;;;9.90;99.90;;;;;;4951949;29;20189;-50
2023/01/07 06:18:48;;;;;;;43.80;25.10;;;9.90;99.90;;;;;;4953024;29;20190;-50
2023/01/07 06:21:15;;;;;;;45.23;24.50;;;9.90;99.90;;;;;;4951753;29;20200;-54
2023/01/07 06:23:40;;;;;;;46.07;25.60;;;9.90;99.90;;;;;;4952067;29;20248;-54
2023/01/07 06:26:06;;;;;;;43.47;25.23;;;9.90;99.90;;;;;;4943910;28;20449;-54
2023/01/07 06:28:31;;;;;;;45.77;26.57;;;10.00;99.90;;;;;;4952234;28;20205;-58
2023/01/07 06:30:57;;;;;;;42.73;25.20;;;10.00;99.90;;;;;;4951917;29;20222;-54
2023/01/07 06:33:23;;;;;;;48.70;25.83;;;10.00;99.90;;;;;;4952189;29;20189;-55
2023/01/07 06:35:48;;;;;;;42.60;25.37;;;10.00;99.90;;;;;;4951389;28;20186;-55
2023/01/07 06:38:14;;;;;;;46.70;26.30;;;10.00;99.90;;;;;;4950957;29;20648;-55
2023/01/07 06:40:40;;;;;;;40.90;25.40;;;10.00;99.90;;;;;;4952167;28;20200;-54
2023/01/07 06:43:05;;;;;;;45.10;26.07;;;10.00;99.90;;;;;;4943626;28;20193;-55
2023/01/07 06:45:31;;;;;;;42.87;24.90;;;10.00;99.90;;;;;;4950659;29;20213;-54
2023/01/07 06:47:57;;;;;;;43.20;24.70;;;9.90;99.90;;;;;;4952517;28;20292;-54
2023/01/07 06:50:23;;;;;;;40.57;25.57;;;9.90;99.90;;;;;;4951437;29;20564;-55
2023/01/07 06:52:49;;;;;;;42.60;24.83;;;10.00;99.90;;;;;;4952063;29;20440;-55
2023/01/07 06:55:14;;;;;;;44.33;25.73;;;10.00;99.90;;;;;;4951278;28;20452;-54
2023/01/07 06:57:40;;;;;;;46.13;26.60;;;10.00;99.90;;;;;;4952181;29;20656;-54
2023/01/07 07:00:06;;;;;;;42.00;25.27;;;10.00;99.90;;;;;;4940711;29;20511;-55
2023/01/07 07:02:32;;;;;;;42.20;25.97;;;10.00;99.90;;;;;;4936853;29;20669;-54
2023/01/07 07:04:57;;;;;;;47.60;25.97;;;10.10;99.90;;;;;;4951242;28;20452;-54
2023/01/07 07:07:24;;;;;;;44.27;26.37;;;10.00;99.90;;;;;;4952260;29;20197;-54
2023/01/07 07:09:49;;;;;;;43.67;25.50;;;10.10;99.90;;;;;;4952085;29;20268;-55
2023/01/07 07:12:16;;;;;;;43.53;25.00;;;10.00;99.90;;;;;;4952586;28;20619;-54
2023/01/07 07:14:41;;;;;;;46.53;28.20;;;10.10;99.90;;;;;;4951923;28;20188;-54
2023/01/07 07:17:07;;;;;;;43.40;25.60;;;10.10;99.90;;;;;;4951574;29;20433;-53
2023/01/07 07:19:33;;;;;;;44.90;27.10;;;10.00;99.90;;;;;;4952860;28;20252;-53
2023/01/07 07:21:58;;;;;;;41.73;24.80;;;10.10;99.90;;;;;;4951855;29;20185;-54
2023/01/07 07:24:24;;;;;;;42.70;26.17;;;10.10;99.90;;;;;;4939305;29;20238;-54
2023/01/07 07:26:50;;;;;;;44.87;27.00;;;10.10;99.90;;;;;;4952701;29;20656;-60
2023/01/07 07:29:15;;;;;;;43.43;27.20;;;10.10;99.90;;;;;;4947180;28;20600;-53
2023/01/07 07:31:41;;;;;;;45.23;26.47;;;10.10;99.90;;;;;;4953306;29;20308;-54
2023/01/07 07:34:08;;;;;;;45.27;26.00;;;10.10;99.90;;;;;;4948245;28;20202;-54
2023/01/07 07:36:34;;;;;;;41.87;25.97;;;10.10;99.90;;;;;;4938265;28;20425;-55
2023/01/07 07:39:00;;;;;;;43.00;26.13;;;10.10;99.90;;;;;;4953569;29;20410;-54
2023/01/07 07:41:25;;;;;;;46.10;27.10;;;10.10;99.90;;;;;;4954743;28;20189;-54
2023/01/07 07:43:51;;;;;;;39.57;24.97;;;10.10;99.90;;;;;;4955947;29;20213;-54
2023/01/07 07:46:16;;;;;;;42.73;25.93;;;10.10;99.90;;;;;;4954685;28;20202;-54
2023/01/07 07:48:42;;;;;;;43.70;26.33;;;10.10;99.90;;;;;;4955282;29;20690;-55
2023/01/07 07:51:07;;;;;;;46.90;29.33;;;10.00;99.90;;;;;;4954227;29;20272;-55
2023/01/07 07:53:33;;;;;;;43.17;26.60;;;10.00;99.90;;;;;;4955127;29;20197;-55
2023/01/07 07:55:58;;;;;;;48.90;28.70;;;10.10;99.90;;;;;;4938271;29;20204;-50
2023/01/07 07:58:24;;;;;;;49.07;29.00;;;10.00;99.90;;;;;;4954519;29;20222;-50
2023/01/07 08:00:50;;;;;;;46.13;27.80;;;10.10;99.90;;;;;;4955353;29;20194;-50
2023/01/07 08:03:15;;;;;;;45.20;28.67;;;10.10;99.90;;;;;;4954498;28;20190;-50
2023/01/07 08:05:43;;;;;;;47.70;28.73;;;10.10;99.90;;;;;;4950460;29;20189;-50
2023/01/07 08:08:11;;;;;;;44.77;28.37;;;10.10;99.90;;;;;;4954069;29;20186;-50
2023/01/07 08:10:37;;;;;;;48.60;28.77;;;10.10;99.90;;;;;;4954035;29;20481;-50
2023/01/07 08:13:03;;;;;;;46.37;27.70;;;10.20;99.90;;;;;;4954502;28;20456;-50
2023/01/07 08:15:29;;;;;;;46.83;28.90;;;10.10;99.90;;;;;;4955229;29;20241;-50
2023/01/07 08:18:03;;;;;;;46.10;28.37;;;10.10;99.90;;;;;;4955889;28;20935;-50
2023/01/07 08:20:29;;;;;;;49.50;28.27;;;10.20;99.90;;;;;;4953386;29;20204;-50
2023/01/07 08:22:59;;;;;;;46.13;28.27;;;10.20;99.90;;;;;;4955243;28;20469;-50
2023/01/07 08:25:25;;;;;;;41.40;27.20;;;10.20;99.90;;;;;;4954641;29;20484;-50
2023/01/07 08:27:50;;;;;;;43.47;26.23;;;10.20;99.90;;;;;;4955580;29;20468;-50
2023/01/07 08:30:16;;;;;;;44.10;26.27;;;10.20;98.00;;;;;;4959832;28;20193;-50
2023/01/07 08:32:42;;;;;;;40.50;25.70;;;10.30;96.50;;;;;;4953490;29;20529;-50
2023/01/07 08:35:08;;;;;;;50.13;27.80;;;10.30;91.50;;;;;;4952914;28;20236;-50
2023/01/07 08:37:33;;;;;;;44.67;26.10;;;10.40;72.10;;;;;;4955309;28;20610;-50
2023/01/07 08:39:59;;;;;;;41.93;26.63;;;10.30;42.80;;;;;;4954122;28;20456;-50
2023/01/07 08:42:25;;;;;;;39.17;25.23;;;10.40;27.80;;;;;;4953916;29;21017;-50
2023/01/07 08:44:51;;;;;;;40.63;26.13;;;10.40;13.90;;;;;;4952802;29;20623;-50
2023/01/07 08:47:16;;;;;;;39.23;22.90;;;10.40;5.20;;;;;;4952560;29;20545;-50
2023/01/07 08:49:42;;;;;;;36.87;23.90;;;10.50;1.00;;;;;;4954004;29;20252;-50
2023/01/07 08:52:07;;;;;;;33.63;21.77;;;10.60;1.00;;;;;;4953324;28;20209;-50
2023/01/07 08:54:33;;;;;;;36.07;23.37;;;10.60;1.00;;;;;;4953708;28;20514;-50
2023/01/07 08:56:59;;;;;;;32.80;21.73;;;10.70;1.00;;;;;;4953392;28;20194;-50
2023/01/07 08:59:24;;;;;;;28.57;19.10;;;10.70;1.00;;;;;;4949176;28;20193;-49
2023/01/07 09:01:50;;;;;;;29.50;18.87;;;10.70;1.00;;;;;;4951239;29;20508;-50
2023/01/07 09:04:16;;;;;;;29.67;19.80;;;10.70;1.00;;;;;;4953829;28;20193;-50
2023/01/07 09:06:41;;;;;;;29.43;19.13;;;10.80;1.00;;;;;;4950581;29;20225;-50
2023/01/07 09:09:07;;;;;;;26.20;17.80;;;10.80;1.00;;;;;;4947485;29;20194;-49
2023/01/07 09:11:32;;;;;;;25.77;16.60;;;10.80;1.00;;;;;;4953276;29;20310;-49
2023/01/07 09:13:58;;;;;;;26.00;16.80;;;10.80;1.00;;;;;;4953555;29;20182;-50
2023/01/07 09:16:23;;;;;;;25.97;16.33;;;10.70;1.00;;;;;;4953175;28;20192;-50
2023/01/07 09:18:49;;;;;;;23.47;15.47;;;10.80;1.00;;;;;;4944375;29;20221;-49
2023/01/07 09:21:15;;;;;;;25.10;15.40;;;10.70;1.00;;;;;;4951897;28;20201;-49
2023/01/07 09:23:41;;;;;;;20.80;14.57;;;10.80;1.00;;;;;;4950906;29;20241;-49
2023/01/07 09:26:06;;;;;;;22.87;14.40;;;10.80;1.00;;;;;;4950605;29;20186;-49
2023/01/07 09:28:32;;;;;;;20.53;13.00;;;10.90;1.00;;;;;;4951872;28;20229;-49
2023/01/07 09:30:58;;;;;;;17.83;12.73;;;10.90;1.00;;;;;;4934990;29;20217;-49
2023/01/07 09:33:24;;;;;;;20.13;12.60;;;10.90;99.90;;;;;;4953127;28;20248;-49
2023/01/07 09:35:50;;;;;;;14.27;11.00;;;11.00;99.90;;;;;;4951417;29;20444;-53
2023/01/07 09:38:16;;;;;;;16.17;10.93;;;11.00;99.90;;;;;;4943632;29;20455;-49
2023/01/07 09:40:43;;;;;;;16.53;10.80;;;11.00;99.90;;;;;;4949126;29;20273;-49
2023/01/07 09:43:34;;;;;;;14.80;9.60;;;11.00;99.90;;;;;;4952258;28;20190;-49
2023/01/07 09:46:03;;;;;;;11.30;8.43;;;11.00;99.90;;;;;;4941625;29;20464;-49
2023/01/07 09:48:41;;;;;;;9.90;7.57;;;11.00;99.90;;;;;;4951754;28;20454;-49
2023/01/07 09:51:21;;;;;;;11.93;6.97;;;11.10;99.90;;;;;;4937891;29;20572;-48
2023/01/07 09:53:50;;;;;;;8.57;6.53;;;11.10;99.90;;;;;;4953262;29;20480;-49
2023/01/07 09:56:31;;;;;;;7.60;6.37;;;11.10;99.90;;;;;;4952533;29;20838;-49
2023/01/07 09:58:58;;;;;;;6.83;5.70;;;11.10;99.90;;;;;;4947678;29;20452;-53
2023/01/07 10:01:49;;;;;;;7.37;5.70;;;11.20;99.30;;;;;;4949176;29;20495;-52
2023/01/07 10:04:41;;;;;;;6.33;4.77;;;11.20;40.50;;;;;;4952351;28;20447;-53
2023/01/07 10:07:38;;;;;;;7.03;4.93;;;11.20;45.70;;;;;;4946246;29;20731;-52
2023/01/07 10:10:23;;;;;;;6.10;5.07;;;11.30;25.00;;;;;;4937926;29;20473;-52
2023/01/07 10:12:52;;;;;;;5.47;4.40;;;11.30;1.00;;;;;;4943129;29;20854;-52
2023/01/07 10:15:39;;;;;;;5.80;5.03;;;11.40;1.00;;;;;;4949989;29;20445;-52
2023/01/07 10:18:31;;;;;;;8.63;4.27;;;11.30;1.00;;;;;;4952977;29;20410;-53
2023/01/07 10:21:29;;;;;;;4.73;4.27;;;11.30;1.00;;;;;;4953503;29;20822;-53
2023/01/07 10:24:15;;;;;;;4.57;3.83;;;11.40;1.00;;;;;;4950192;29;20483;-52
2023/01/07 10:26:45;;;;;;;5.80;3.57;;;11.40;1.00;;;;;;4946228;29;20884;-52
2023/01/07 10:29:16;;;;;;;7.83;4.50;;;11.40;1.00;;;;;;4950089;28;20463;-53
2023/01/07 10:31:43;;;;;;;3.83;3.43;;;11.50;1.00;;;;;;4951757;29;20470;-52
2023/01/07 10:34:15;;;;;;;4.27;3.40;;;11.60;99.90;;;;;;4953016;28;20425;-52
2023/01/07 10:37:10;;;;;;;5.30;3.20;;;11.70;99.90;;;;;;4953550;29;20966;-52
2023/01/07 10:39:41;;;;;;;3.47;3.17;;;11.80;99.90;;;;;;4953177;28;21061;-52
2023/01/07 10:42:25;;;;;;;3.70;3.27;;;12.00;1.00;;;;;;4953865;28;20424;-51
2023/01/07 10:44:53;;;;;;;4.80;3.10;;;12.00;99.90;;;;;;4952457;29;20428;-58
2023/01/07 10:47:19;;;;;;;4.20;3.13;;;12.00;99.90;;;;;;4952291;29;20846;-52
2023/01/07 10:50:12;;;;;;;3.90;3.60;;;11.90;99.90;;;;;;4950942;29;20429;-51
2023/01/07 10:52:56;;;;;;;3.30;2.60;;;11.80;99.90;;;;;;4934225;29;20338;-52
2023/01/07 10:55:28;;;;;;;4.90;3.10;;;11.70;99.90;;;;;;4952405;29;20429;-52
2023/01/07 10:57:54;;;;;;;3.90;2.73;;;11.70;99.90;;;;;;4953227;29;20394;-51
2023/01/07 11:00:19;;;;;;;3.23;2.90;;;11.70;99.90;;;;;;4953152;29;20915;-51
2023/01/07 11:02:49;;;;;;;2.80;2.60;;;11.80;42.50;;;;;;4952954;29;20190;-49
2023/01/07 11:05:19;;;;;;;3.10;2.80;;;11.80;1.00;;;;;;4952585;29;20182;-49
2023/01/07 11:08:02;;;;;;;4.40;2.80;;;11.90;1.00;;;;;;4942470;29;20543;-51
2023/01/07 11:10:32;;;;;;;2.70;2.50;;;11.90;99.90;;;;;;4933855;29;20501;-51
2023/01/07 11:13:02;;;;;;;2.57;2.30;;;12.00;1.00;;;;;;4949409;29;20429;-51
2023/01/07 11:15:39;;;;;;;2.53;2.33;;;11.80;1.00;;;;;;4953494;28;20406;-51
2023/01/07 11:18:20;;;;;;;3.03;2.70;;;11.80;99.90;;;;;;4956658;29;20431;-52
2023/01/07 11:20:50;;;;;;;3.03;2.60;;;11.70;99.90;;;;;;4956583;28;20921;-52
2023/01/07 11:23:35;;;;;;;2.50;2.30;;;11.70;99.90;;;;;;4956143;28;20492;-51
2023/01/07 11:26:11;;;;;;;3.00;2.37;;;11.70;99.90;;;;;;4956844;29;20492;-52
2023/01/07 11:28:47;;;;;;;2.50;2.30;;;11.70;99.90;;;;;;4956476;28;20420;-51
2023/01/07 11:31:12;;;;;;;2.70;2.20;;;11.70;99.90;;;;;;4956367;28;20468;-49
2023/01/07 11:33:41;;;;;;;2.90;2.53;;;11.70;1.00;;;;;;4956220;29;20418;-50
2023/01/07 11:36:08;;;;;;;3.27;2.30;;;11.70;1.00;;;;;;4954712;29;20190;-50
2023/01/07 11:38:36;;;;;;;3.00;2.30;;;11.60;99.90;;;;;;4953800;28;20504;-48
2023/01/07 11:41:04;;;;;;;3.67;2.57;;;11.60;99.90;;;;;;4953131;28;20444;-49
2023/01/07 11:43:32;;;;;;;2.30;2.10;;;11.60;99.90;;;;;;4955197;28;20535;-49
2023/01/07 11:46:03;;;;;;;2.60;2.00;;;11.50;99.90;;;;;;4953590;29;20824;-49
2023/01/07 11:48:34;;;;;;;2.33;2.10;;;11.60;99.90;;;;;;4956306;28;20949;-49
2023/01/07 11:51:01;;;;;;;2.77;2.10;;;11.70;1.00;;;;;;4952002;29;20840;-49
2023/01/07 11:53:45;;;;;;;3.40;1.93;;;11.70;1.00;;;;;;4955721;28;20731;-49
2023/01/07 11:56:20;;;;;;;2.27;2.07;;;11.60;1.00;;;;;;4955497;29;20565;-49
2023/01/07 11:58:51;;;;;;;2.13;1.93;;;11.60;1.00;;;;;;4955978;28;20445;-49
2023/01/07 12:01:20;;;;;;;2.90;1.80;;;11.60;1.00;;;;;;4954950;28;20528;-49
2023/01/07 12:03:52;;;;;;;2.20;2.00;;;11.60;1.00;;;;;;4955022;29;20484;-49
2023/01/07 12:06:26;;;;;;;4.50;1.77;;;11.60;99.90;;;;;;4955207;29;20935;-48
2023/01/07 12:09:06;;;;;;;2.00;1.90;;;11.60;99.90;;;;;;4936297;29;20439;-49
2023/01/07 12:11:34;;;;;;;2.53;1.90;;;11.60;99.90;;;;;;4954937;29;21196;-48
2023/01/07 12:14:28;;;;;;;2.23;2.03;;;11.50;99.90;;;;;;4954295;29;20469;-48
2023/01/07 12:17:04;;;;;;;3.97;1.70;;;11.60;99.90;;;;;;4951772;29;20455;-48
2023/01/07 12:19:48;;;;;;;2.43;2.20;;;11.60;99.90;;;;;;4952280;29;20455;-48
2023/01/07 12:22:51;;;;;;;3.30;2.20;;;11.60;31.30;;;;;;4939347;29;20418;-48
2023/01/07 12:25:22;;;;;;;2.40;2.17;;;11.60;99.90;;;;;;4950329;29;20460;-49
2023/01/07 12:28:19;;;;;;;4.13;2.20;;;11.70;1.00;;;;;;4948227;28;20455;-48
2023/01/07 12:31:06;;;;;;;2.60;1.83;;;11.80;1.00;;;;;;4902354;29;20594;-49
2023/01/07 12:33:55;;;;;;;3.13;2.50;;;11.80;93.40;;;;;;4966908;28;20499;-48
2023/01/07 12:36:41;;;;;;;2.57;1.90;;;11.80;99.90;;;;;;4953733;29;21400;-50
2023/01/07 12:39:24;;;;;;;2.37;1.90;;;11.80;1.00;;;;;;4946135;29;20434;-49
2023/01/07 12:42:10;;;;;;;3.80;2.20;;;11.70;1.00;;;;;;4934962;29;20441;-49
2023/01/07 12:44:43;;;;;;;2.30;2.00;;;11.70;99.90;;;;;;4946231;28;20812;-48
2023/01/07 12:47:19;;;;;;;2.17;1.97;;;11.70;99.90;;;;;;4932413;29;20484;-48
2023/01/07 12:50:03;;;;;;;3.47;1.80;;;11.60;99.90;;;;;;4949530;29;20448;-49
2023/01/07 12:52:37;;;;;;;2.40;1.80;;;11.50;1.00;;;;;;4941330;29;20809;-48
2023/01/07 12:55:28;;;;;;;1.93;1.73;;;11.50;1.00;;;;;;4949178;28;20515;-48
2023/01/07 12:58:17;;;;;;;1.97;1.83;;;11.40;99.90;;;;;;4946423;29;21478;-49